EWG2PL EDDH-EKBI

Flight info

Callsign EWG2PL
Flight time 0h 31m
Altitude 24000
Route SOKWO1G/33 SOKWO T814 EXNEL/N0395F230 M105 AMRAK/N0402F240 DCT LOKSA
Aircraft A20N/M-SDE2E3FGHIRWXY/LB1

Departure

Time 2026-04-25 18:40
Airport Hamburg Helmut Schmidt Airport (EDDH)

Arrival

Time 2026-04-25 19:12
Airport Billund Airport (EKBI)
Time Latitude Longitude Altitude Speed Heading
2026-04-25 18:27 53.63208 10.00363 54 ft 0 kts 87°
2026-04-25 18:35 53.63206 10.00336 54 ft 2 kts 86°
2026-04-25 18:35 53.63206 10.00308 54 ft 2 kts 92°
2026-04-25 18:36 53.63208 10.00281 54 ft 2 kts 104°
2026-04-25 18:36 53.63215 10.00256 50 ft 2 kts 135°
2026-04-25 18:36 53.63222 10.00248 50 ft 0 kts 165°
2026-04-25 18:36 53.63222 10.00247 50 ft 0 kts 171°
2026-04-25 18:37 53.63214 10.00248 50 ft 4 kts 176°
2026-04-25 18:37 53.63160 10.00251 51 ft 12 kts 178°
2026-04-25 18:37 53.63060 10.00246 54 ft 14 kts 199°
2026-04-25 18:38 53.62986 10.00172 52 ft 12 kts 212°
2026-04-25 18:38 53.62962 10.00146 52 ft 13 kts 212°
2026-04-25 18:38 53.62886 10.00066 48 ft 14 kts 216°
2026-04-25 18:38 53.62845 9.99962 53 ft 6 kts 243°
2026-04-25 18:39 53.62822 9.99885 49 ft 9 kts 243°
2026-04-25 18:39 53.62818 9.99794 52 ft 7 kts 307°
2026-04-25 18:39 53.62847 9.99760 52 ft 5 kts 335°
2026-04-25 18:39 53.62975 9.99651 52 ft 57 kts 333°
2026-04-25 18:40 53.63589 9.99132 67 ft 135 kts 334°
2026-04-25 18:40 53.64473 9.98378 640 ft 149 kts 326°
2026-04-25 18:40 53.65403 9.97509 1472 ft 154 kts 328°
2026-04-25 18:40 53.66418 9.96644 2231 ft 180 kts 333°
2026-04-25 18:41 53.67654 9.95758 2885 ft 207 kts 334°
2026-04-25 18:41 53.69036 9.95041 3834 ft 220 kts 349°
2026-04-25 18:41 53.70614 9.94966 4594 ft 231 kts 356°
2026-04-25 18:41 53.72228 9.95067 4984 ft 232 kts 356°
2026-04-25 18:42 53.73839 9.95535 5093 ft 245 kts 18°
2026-04-25 18:42 53.74324 9.96019 5195 ft 253 kts 26°
2026-04-25 18:42 53.76776 9.98904 6804 ft 257 kts 24°
2026-04-25 18:42 53.78278 10.00580 7947 ft 260 kts 23°
2026-04-25 18:43 53.79787 10.02244 9053 ft 264 kts 22°
2026-04-25 18:43 53.81352 10.03960 10165 ft 269 kts 22°
2026-04-25 18:43 53.81890 10.04548 10470 ft 273 kts 22°
2026-04-25 18:43 53.83454 10.06247 10985 ft 297 kts 22°
2026-04-25 18:44 53.85250 10.08237 11569 ft 317 kts 23°
2026-04-25 18:44 53.87102 10.10340 12420 ft 326 kts 24°
2026-04-25 18:44 53.89024 10.12390 13388 ft 326 kts 18°
2026-04-25 18:44 53.91100 10.13814 14342 ft 317 kts
2026-04-25 18:45 53.93264 10.14291 15224 ft 311 kts 355°
2026-04-25 18:45 53.94698 10.14292 15811 ft 310 kts 351°
2026-04-25 18:45 53.96011 10.14129 16354 ft 310 kts 347°
2026-04-25 18:45 53.98147 10.13624 17237 ft 312 kts 344°
2026-04-25 18:46 54.00296 10.12932 18101 ft 314 kts 343°
2026-04-25 18:46 54.02424 10.12171 18836 ft 317 kts 342°
2026-04-25 18:46 54.04601 10.11377 19525 ft 322 kts 342°
2026-04-25 18:46 54.06809 10.10588 20205 ft 326 kts 343°
2026-04-25 18:47 54.09040 10.09817 20986 ft 327 kts 343°
2026-04-25 18:47 54.11281 10.09025 21741 ft 328 kts 341°
2026-04-25 18:47 54.13508 10.08087 22391 ft 332 kts 341°
2026-04-25 18:47 54.15770 10.07167 23002 ft 336 kts 342°
2026-04-25 18:48 54.18065 10.06303 23636 ft 340 kts 342°
2026-04-25 18:48 54.20362 10.05483 23961 ft 342 kts 343°
2026-04-25 18:48 54.22695 10.04679 24047 ft 342 kts 343°
2026-04-25 18:48 54.25035 10.03886 24051 ft 343 kts 343°
2026-04-25 18:49 54.27384 10.03099 24051 ft 344 kts 343°
2026-04-25 18:49 54.29732 10.02315 24053 ft 348 kts 343°
2026-04-25 18:49 54.32179 10.01503 24053 ft 365 kts 344°
2026-04-25 18:49 54.34693 10.00691 24093 ft 380 kts 345°
2026-04-25 18:50 54.37347 9.99863 24058 ft 394 kts 345°
2026-04-25 18:50 54.40068 9.99027 23960 ft 399 kts 345°
2026-04-25 18:50 54.40840 9.98790 23885 ft 392 kts 345°
2026-04-25 18:50 54.43503 9.97948 23407 ft 392 kts 345°
2026-04-25 18:51 54.46199 9.97075 22837 ft 394 kts 345°
2026-04-25 18:51 54.47080 9.96789 22653 ft 394 kts 345°
2026-04-25 18:51 54.51543 9.95335 21731 ft 390 kts 344°
2026-04-25 18:51 54.54206 9.94456 21191 ft 387 kts 344°
2026-04-25 18:52 54.56840 9.93580 20658 ft 383 kts 344°
2026-04-25 18:52 54.59450 9.92706 20139 ft 380 kts 344°
2026-04-25 18:52 54.62041 9.91837 19681 ft 376 kts 344°
2026-04-25 18:52 54.64592 9.90982 19178 ft 371 kts 344°
2026-04-25 18:53 54.67115 9.90131 18675 ft 367 kts 344°
2026-04-25 18:53 54.69587 9.89291 18164 ft 365 kts 343°
2026-04-25 18:53 54.72071 9.88446 17599 ft 362 kts 343°
2026-04-25 18:53 54.74538 9.87607 17041 ft 360 kts 343°
2026-04-25 18:54 54.79422 9.85944 15957 ft 355 kts 343°
2026-04-25 18:54 54.81839 9.85120 15435 ft 352 kts 343°
2026-04-25 18:54 54.84212 9.84310 14918 ft 350 kts 343°
2026-04-25 18:55 54.86595 9.83496 14406 ft 348 kts 343°
2026-04-25 18:55 54.88971 9.82685 13905 ft 345 kts 344°
2026-04-25 18:55 54.91315 9.81884 13365 ft 342 kts 344°
2026-04-25 18:55 54.93660 9.81076 13083 ft 343 kts 344°
2026-04-25 18:56 54.96004 9.80270 13047 ft 342 kts 345°
2026-04-25 18:56 54.98312 9.79475 13047 ft 341 kts 345°
2026-04-25 18:56 55.00642 9.78670 13048 ft 341 kts 344°
2026-04-25 18:56 55.02977 9.77862 13048 ft 341 kts 344°
2026-04-25 18:57 55.05305 9.77058 13047 ft 341 kts 345°
2026-04-25 18:57 55.07641 9.76250 13048 ft 341 kts 345°
2026-04-25 18:57 55.09970 9.75445 13046 ft 341 kts 344°
2026-04-25 18:57 55.10727 9.75183 13046 ft 341 kts 344°
2026-04-25 18:58 55.14583 9.73848 12580 ft 338 kts 345°
2026-04-25 18:58 55.19197 9.72250 11533 ft 336 kts 345°
2026-04-25 18:58 55.21492 9.71451 11038 ft 336 kts 345°
2026-04-25 18:59 55.26091 9.69848 10046 ft 336 kts 346°
2026-04-25 18:59 55.30653 9.68255 8979 ft 336 kts 346°
2026-04-25 19:00 55.35230 9.66656 7923 ft 334 kts 347°
2026-04-25 19:00 55.37516 9.65856 7411 ft 334 kts 347°
2026-04-25 19:01 55.41316 9.64521 7044 ft 336 kts 348°
2026-04-25 19:01 55.43615 9.63712 7038 ft 336 kts 348°
2026-04-25 19:01 55.46668 9.62637 7020 ft 336 kts 348°
2026-04-25 19:01 55.48193 9.62098 6831 ft 323 kts 348°
2026-04-25 19:02 55.52357 9.61000 5885 ft 284 kts 359°
2026-04-25 19:02 55.54232 9.61067 5401 ft 262 kts 359°
2026-04-25 19:02 55.55979 9.61047 5086 ft 240 kts 358°
2026-04-25 19:03 55.58679 9.60898 4826 ft 231 kts 356°
2026-04-25 19:03 55.60803 9.60738 4291 ft 220 kts 356°
2026-04-25 19:03 55.62294 9.60609 3890 ft 209 kts 356°
2026-04-25 19:04 55.65142 9.60316 3142 ft 204 kts 355°
2026-04-25 19:04 55.66554 9.60157 3021 ft 202 kts 355°
2026-04-25 19:05 55.69354 9.59845 3020 ft 202 kts 355°
2026-04-25 19:05 55.72165 9.59537 3017 ft 202 kts 355°
2026-04-25 19:05 55.73544 9.59347 3006 ft 199 kts 348°
2026-04-25 19:06 55.74719 9.58346 3012 ft 182 kts 321°
2026-04-25 19:06 55.75328 9.53823 3024 ft 210 kts 276°
2026-04-25 19:06 55.75267 9.51186 3017 ft 215 kts 277°
2026-04-25 19:07 55.75121 9.46244 3024 ft 193 kts 276°
2026-04-25 19:07 55.75024 9.43833 3026 ft 197 kts 276°
2026-04-25 19:08 55.74804 9.38992 2725 ft 197 kts 275°
2026-04-25 19:08 55.74726 9.36583 2431 ft 192 kts 277°
2026-04-25 19:09 55.74525 9.30209 1706 ft 143 kts 277°
2026-04-25 19:09 55.74485 9.29078 1559 ft 133 kts 278°
2026-04-25 19:09 55.74336 9.25522 1203 ft 117 kts 276°
2026-04-25 19:10 55.74313 9.24099 1028 ft 116 kts 274°
2026-04-25 19:10 55.74272 9.22665 810 ft 118 kts 276°
2026-04-25 19:10 55.74219 9.21203 637 ft 117 kts 274°
2026-04-25 19:10 55.74173 9.19809 499 ft 113 kts 274°
2026-04-25 19:11 55.74136 9.18416 355 ft 110 kts 274°
2026-04-25 19:11 55.74089 9.17113 248 ft 98 kts 270°
2026-04-25 19:11 55.74069 9.16054 237 ft 76 kts 267°
2026-04-25 19:11 55.74042 9.15208 235 ft 63 kts 266°
2026-04-25 19:12 55.74022 9.14564 229 ft 17 kts 282°
2026-04-25 19:12 55.74117 9.14494 228 ft 10 kts 356°
2026-04-25 19:12 55.74120 9.14494 228 ft 0 kts 356°
2026-04-25 19:12 55.74122 9.14494 228 ft 1 kts 356°
2026-04-25 19:13 55.74145 9.14491 228 ft 8 kts 357°
2026-04-25 19:13 55.74235 9.14484 228 ft 18 kts 357°
2026-04-25 19:13 55.74387 9.14468 230 ft 25 kts 355°
2026-04-25 19:13 55.74445 9.14588 229 ft 2 kts 81°
2026-04-25 19:14 55.74448 9.14627 229 ft 0 kts 78°
2026-04-25 19:14 55.74455 9.14648 231 ft 9 kts 56°
2026-04-25 19:14 55.74490 9.14677 230 ft 2 kts 318°
2026-04-25 19:14 55.74500 9.14618 229 ft 5 kts 319°
2026-04-25 19:15 55.74528 9.14614 229 ft 0 kts 358°